Time;durP1;ratioP1;P1;durP2;ratioP2;P2;SDS_P1;SDS_P2;PMS_P1;PMS_P2;Temp;Humidity;BMP_temperature;BMP_pressure;BME280_temperature;BME280_humidity;BME280_pressure;Samples;Min_cycle;Max_cycle;Signal;HPM_P1;HPM_P2
2021/08/17 00:00:41;;;;;;;20.48;11.20;;;;;;;19.60;73.54;100757.26;1775226;80;22189;-75
2021/08/17 00:03:10;;;;;;;18.23;12.03;;;;;;;19.62;73.60;100749.14;1775428;80;20976;-76
2021/08/17 00:05:38;;;;;;;19.52;11.90;;;;;;;19.62;73.58;100751.80;1775191;80;20944;-75
2021/08/17 00:08:05;;;;;;;24.82;13.08;;;;;;;19.60;73.52;100753.27;1775569;80;20932;-75
2021/08/17 00:10:34;;;;;;;16.95;11.12;;;;;;;19.58;73.58;100757.06;1775306;80;20904;-75
2021/08/17 00:13:03;;;;;;;17.10;11.15;;;;;;;19.56;73.70;100765.19;1775228;80;20896;-75
2021/08/17 00:15:31;;;;;;;16.35;11.83;;;;;;;19.54;73.96;100764.52;1775214;80;21343;-75
2021/08/17 00:17:59;;;;;;;15.25;11.88;;;;;;;19.52;74.19;100765.63;1775192;80;20926;-75
2021/08/17 00:20:28;;;;;;;19.75;12.93;;;;;;;19.50;74.39;100763.61;1775137;80;21410;-75
2021/08/17 00:22:56;;;;;;;21.65;14.53;;;;;;;19.48;74.75;100766.43;1774955;80;20968;-74
2021/08/17 00:25:22;;;;;;;19.35;13.65;;;;;;;19.48;75.12;100772.25;1775201;80;21111;-74
2021/08/17 00:27:49;;;;;;;22.00;15.40;;;;;;;19.48;75.56;100772.25;1775524;80;21398;-74
2021/08/17 00:30:17;;;;;;;21.02;14.70;;;;;;;19.49;75.91;100768.59;1775243;80;20979;-75
2021/08/17 00:32:44;;;;;;;19.73;14.75;;;;;;;19.51;76.46;100765.30;1775142;80;21536;-75
2021/08/17 00:35:11;;;;;;;19.75;15.68;;;;;;;19.54;77.25;100762.33;1775312;80;20873;-75
2021/08/17 00:37:39;;;;;;;24.20;15.63;;;;;;;19.61;77.36;100764.77;1775268;80;21417;-74
2021/08/17 00:40:08;;;;;;;19.50;15.75;;;;;;;19.66;77.38;100765.99;1776638;80;20995;-75
2021/08/17 00:42:42;;;;;;;20.40;14.43;;;;;;;19.72;77.23;100761.09;1783548;80;21399;-74
2021/08/17 00:45:21;;;;;;;20.05;14.40;;;;;;;19.76;77.31;100769.95;1783400;80;20940;-74
2021/08/17 00:47:51;;;;;;;20.85;15.78;;;;;;;19.78;77.38;100773.30;1782782;80;21057;-74
2021/08/17 00:50:30;;;;;;;22.42;15.60;;;;;;;19.80;77.38;100775.33;1783564;80;21164;-74
2021/08/17 00:55:35;;;;;;;23.00;15.53;;;;;;;19.86;77.73;100780.06;1797884;79;22538;-74
2021/08/17 00:58:01;;;;;;;25.30;17.67;;;;;;;19.82;77.95;100782.67;1784188;80;20880;-73
2021/08/17 01:00:29;;;;;;;22.42;17.80;;;;;;;19.84;78.16;100783.87;1792629;80;21975;-74
2021/08/17 01:02:55;;;;;;;22.00;17.12;;;;;;;19.86;78.38;100783.23;1792426;80;20899;-75
2021/08/17 01:05:27;;;;;;;23.05;17.30;;;;;;;19.88;78.54;100779.42;1792603;80;20931;-74
2021/08/17 01:07:55;;;;;;;21.57;17.12;;;;;;;19.91;78.74;100781.45;1792535;78;20919;-75
2021/08/17 01:10:22;;;;;;;23.27;17.10;;;;;;;19.93;78.83;100780.31;1792596;78;20899;-75
2021/08/17 01:12:49;;;;;;;19.10;17.02;;;;;;;19.95;78.92;100777.01;1792594;80;21507;-74
2021/08/17 01:15:17;;;;;;;22.27;18.27;;;;;;;19.98;79.02;100774.03;1792477;80;20902;-74
2021/08/17 01:17:46;;;;;;;21.42;19.00;;;;;;;20.00;79.14;100768.57;1792550;80;21349;-75
2021/08/17 01:20:16;;;;;;;20.85;17.82;;;;;;;20.03;79.26;100769.13;1792522;80;20930;-74
2021/08/17 01:22:46;;;;;;;23.45;18.75;;;;;;;20.06;79.40;100771.97;1792661;80;21476;-74
2021/08/17 01:25:13;;;;;;;28.32;18.20;;;;;;;20.08;79.65;100769.50;1792525;78;21468;-74
2021/08/17 01:27:41;;;;;;;22.30;18.30;;;;;;;20.09;79.83;100770.33;1792570;80;21333;-74
2021/08/17 01:30:10;;;;;;;28.02;16.50;;;;;;;20.08;79.95;100766.84;1792765;78;20871;-74
2021/08/17 01:32:37;;;;;;;21.87;17.52;;;;;;;20.09;80.02;100765.84;1792470;80;20966;-74
2021/08/17 01:35:04;;;;;;;23.30;19.42;;;;;;;20.10;80.21;100769.36;1792600;80;21508;-75
2021/08/17 01:37:34;;;;;;;28.98;18.65;;;;;;;20.11;80.36;100772.34;1792785;78;21013;-74
2021/08/17 01:40:10;;;;;;;24.55;19.92;;;;;;;20.12;80.62;100766.52;1792513;78;21008;-75
2021/08/17 01:42:40;;;;;;;25.97;19.25;;;;;;;20.13;80.77;100770.38;1792536;80;20867;-75
2021/08/17 01:45:11;;;;;;;25.65;20.55;;;;;;;20.14;80.96;100780.53;1764788;80;20848;-75
2021/08/17 01:47:38;;;;;;;22.42;18.27;;;;;;;20.13;81.08;100775.70;1792484;78;20876;-75
2021/08/17 01:50:05;;;;;;;24.20;19.15;;;;;;;20.14;81.20;100777.36;1792468;80;21115;-74
2021/08/17 01:52:34;;;;;;;27.02;21.05;;;;;;;20.15;81.37;100777.72;1792485;80;21523;-74
2021/08/17 01:55:02;;;;;;;26.45;21.12;;;;;;;20.16;81.54;100782.05;1785425;78;20931;-74
2021/08/17 01:57:29;;;;;;;29.55;21.57;;;;;;;20.16;81.63;100782.05;1781329;80;20852;-74
2021/08/17 01:59:55;;;;;;;25.88;20.80;;;;;;;20.17;81.74;100779.74;1781368;80;21479;-74
2021/08/17 02:02:22;;;;;;;25.25;22.22;;;;;;;20.18;81.81;100784.57;1781674;80;21493;-74
2021/08/17 02:04:51;;;;;;;29.23;23.18;;;;;;;20.19;81.94;100787.59;1781190;80;20982;-74
2021/08/17 02:07:17;;;;;;;28.98;22.62;;;;;;;20.19;82.25;100782.27;1780817;80;20946;-75
2021/08/17 02:09:46;;;;;;;25.35;22.45;;;;;;;20.18;82.46;100784.06;1781097;80;21291;-75
2021/08/17 02:12:14;;;;;;;30.35;23.75;;;;;;;20.19;82.60;100787.09;1780895;80;20884;-75
2021/08/17 02:14:42;;;;;;;29.85;24.63;;;;;;;20.19;82.76;100787.09;1780877;80;21105;-76
2021/08/17 02:17:09;;;;;;;28.57;25.65;;;;;;;20.20;83.06;100787.42;1743796;82;20880;-75
2021/08/17 02:19:38;;;;;;;30.95;24.87;;;;;;;20.22;83.72;100784.61;1717425;83;20936;-74
2021/08/17 02:22:06;;;;;;;30.08;26.93;;;;;;;20.25;84.24;100793.16;1780941;79;21294;-75
2021/08/17 02:24:34;;;;;;;29.12;25.20;;;;;;;20.28;84.50;100786.19;1780958;80;20982;-75
2021/08/17 02:27:00;;;;;;;28.85;25.55;;;;;;;20.33;84.67;100787.55;1743733;82;21351;-74
2021/08/17 02:29:29;;;;;;;32.20;24.45;;;;;;;20.37;84.73;100787.10;1743808;82;20892;-75
2021/08/17 02:31:56;;;;;;;29.55;23.73;;;;;;;20.40;84.77;100783.30;1717470;83;20933;-75
2021/08/17 02:34:23;;;;;;;25.25;22.48;;;;;;;20.45;84.84;100786.33;1780763;80;20888;-75
2021/08/17 02:36:49;;;;;;;28.30;23.87;;;;;;;20.48;84.88;100786.88;1780848;79;21433;-75
2021/08/17 02:39:17;;;;;;;30.10;24.30;;;;;;;20.53;84.92;100787.74;1780911;80;21145;-74
2021/08/17 02:41:45;;;;;;;28.47;24.60;;;;;;;20.58;84.81;100788.14;1780724;79;20943;-74
2021/08/17 02:44:13;;;;;;;28.25;24.37;;;;;;;20.63;84.82;100786.35;1780897;80;20927;-74
2021/08/17 02:46:40;;;;;;;28.27;23.98;;;;;;;20.68;84.73;100786.75;1780764;79;20840;-74
2021/08/17 02:49:09;;;;;;;25.72;22.42;;;;;;;20.74;84.61;100787.44;1744139;81;21389;-75
2021/08/17 02:51:36;;;;;;;32.40;24.80;;;;;;;20.78;84.47;100790.14;1717787;83;21048;-74
2021/08/17 02:54:03;;;;;;;27.67;24.67;;;;;;;20.81;84.28;100788.52;1781712;80;21374;-74
2021/08/17 02:56:30;;;;;;;27.73;21.97;;;;;;;20.85;84.13;100797.03;1786568;80;20864;-74
2021/08/17 02:58:58;;;;;;;23.77;21.23;;;;;;;20.87;84.01;100797.71;1786696;80;20966;-74
2021/08/17 03:01:26;;;;;;;26.90;23.70;;;;;;;20.88;83.98;100786.08;1786795;79;21058;-75
2021/08/17 03:03:53;;;;;;;31.07;23.07;;;;;;;20.90;83.95;100796.92;1786563;80;21157;-75
2021/08/17 03:06:20;;;;;;;24.85;21.23;;;;;;;20.93;83.73;100795.77;1786606;80;20817;-75
2021/08/17 03:08:47;;;;;;;24.75;19.55;;;;;;;20.95;83.69;100799.12;1786957;80;20836;-75
2021/08/17 03:11:15;;;;;;;24.45;19.12;;;;;;;20.98;83.68;100792.13;1786690;80;21390;-75
2021/08/17 03:13:43;;;;;;;26.70;22.07;;;;;;;21.03;83.54;100795.19;1786641;80;20939;-74
2021/08/17 03:16:10;;;;;;;22.52;20.12;;;;;;;21.09;83.35;100793.20;1786699;79;22163;-75
2021/08/17 03:18:39;;;;;;;24.72;18.92;;;;;;;21.14;83.21;100791.41;1758724;80;20959;-74
2021/08/17 03:21:07;;;;;;;22.67;18.15;;;;;;;21.21;83.01;100787.61;1786548;80;20919;-74
2021/08/17 03:23:34;;;;;;;22.32;19.52;;;;;;;21.27;82.75;100782.48;1786751;79;20963;-74
2021/08/17 03:26:02;;;;;;;22.17;19.30;;;;;;;21.36;82.41;100790.54;1786687;79;21013;-74
2021/08/17 03:28:29;;;;;;;21.25;19.15;;;;;;;21.42;82.08;100788.11;1786533;80;21957;-74
2021/08/17 03:30:56;;;;;;;20.57;17.77;;;;;;;21.48;81.84;100788.81;1786461;79;20915;-74
2021/08/17 03:33:23;;;;;;;25.65;18.17;;;;;;;21.55;81.58;100797.53;1786953;80;20951;-73
2021/08/17 03:35:50;;;;;;;23.77;18.80;;;;;;;21.60;81.34;100800.55;1786588;80;20903;-74
2021/08/17 03:38:17;;;;;;;26.57;19.77;;;;;;;21.62;81.23;100799.89;1786517;80;20996;-74
2021/08/17 03:40:43;;;;;;;28.12;22.13;;;;;;;21.64;81.06;100808.58;1786537;80;21512;-74
2021/08/17 03:43:12;;;;;;;23.60;19.80;;;;;;;21.63;80.93;100807.75;1786685;79;20900;-75
2021/08/17 03:45:39;;;;;;;24.18;20.95;;;;;;;21.64;80.76;100809.41;1786600;79;21291;-75
2021/08/17 03:48:06;;;;;;;26.23;22.35;;;;;;;21.65;80.72;100812.40;1786573;79;21540;-74
2021/08/17 03:50:33;;;;;;;25.43;20.77;;;;;;;21.65;80.64;100807.56;1786576;79;21413;-75
2021/08/17 03:53:00;;;;;;;24.35;20.90;;;;;;;21.68;80.61;100813.94;1786528;80;21129;-75
2021/08/17 03:55:27;;;;;;;28.57;22.30;;;;;;;21.69;80.54;100813.76;1786411;80;20880;-74
2021/08/17 03:57:54;;;;;;;25.17;21.75;;;;;;;21.75;80.52;100814.14;1786764;80;20883;-75
2021/08/17 04:00:29;;;;;;;25.17;21.27;;;;;;;21.80;80.45;100818.48;1786496;79;21628;-75
2021/08/17 04:02:53;;;;;;;21.80;19.52;;;;;;;21.84;80.39;100819.34;1785801;80;20939;-75
2021/08/17 04:05:21;;;;;;;26.02;19.70;;;;;;;21.89;80.45;100821.52;1786549;80;21930;-74
2021/08/17 04:07:48;;;;;;;22.17;19.57;;;;;;;21.93;80.35;100815.70;1786439;79;20911;-75
2021/08/17 04:10:16;;;;;;;26.17;21.15;;;;;;;22.02;80.31;100818.41;1786510;80;20884;-74
2021/08/17 04:12:43;;;;;;;28.80;22.25;;;;;;;22.08;80.20;100821.27;1749631;82;21414;-75
2021/08/17 04:15:11;;;;;;;36.88;21.45;;;;;;;22.14;80.16;100823.30;1749339;82;21341;-75
2021/08/17 04:17:39;;;;;;;23.30;20.70;;;;;;;22.22;80.08;100827.84;1718506;83;21350;-75
2021/08/17 04:20:09;;;;;;;28.50;19.80;;;;;;;22.31;79.99;100824.69;1719356;83;20928;-75
2021/08/17 04:22:38;;;;;;;22.27;19.10;;;;;;;22.40;79.70;100827.71;1722820;83;21378;-75
2021/08/17 04:25:06;;;;;;;21.85;19.50;;;;;;;22.48;79.28;100824.23;1722749;82;20916;-75
2021/08/17 04:27:33;;;;;;;22.20;19.75;;;;;;;22.58;78.98;100827.57;1723148;83;20905;-75
2021/08/17 04:30:00;;;;;;;20.35;18.15;;;;;;;22.68;78.64;100829.59;1731129;83;21187;-73
2021/08/17 04:32:27;;;;;;;23.65;18.75;;;;;;;22.78;77.88;100825.41;1731269;83;20900;-73
2021/08/17 04:34:55;;;;;;;21.87;19.05;;;;;;;22.89;77.37;100823.73;1731201;82;20913;-74
2021/08/17 04:37:22;;;;;;;24.80;19.98;;;;;;;23.00;76.84;100822.59;1731028;83;20960;-75
2021/08/17 04:39:50;;;;;;;20.72;18.48;;;;;;;23.09;76.27;100817.57;1731244;82;20881;-74
2021/08/17 04:42:16;;;;;;;20.55;17.55;;;;;;;23.20;75.84;100815.56;1731231;83;21771;-75
2021/08/17 04:44:43;;;;;;;20.02;17.92;;;;;;;23.34;75.73;100821.54;1731023;83;20925;-75
2021/08/17 04:47:12;;;;;;;20.32;17.40;;;;;;;23.47;75.49;100820.50;1731183;82;21521;-75
2021/08/17 04:49:40;;;;;;;23.40;17.42;;;;;;;23.64;74.99;100819.14;1731124;83;20873;-75
2021/08/17 04:52:07;;;;;;;23.92;17.60;;;;;;;23.79;74.45;100826.30;1731093;83;20972;-75
2021/08/17 04:54:33;;;;;;;22.32;17.02;;;;;;;23.98;74.04;100825.55;1732152;82;21523;-76
2021/08/17 04:57:00;;;;;;;20.15;17.75;;;;;;;24.18;73.38;100825.94;1752387;82;20873;-76
2021/08/17 04:59:28;;;;;;;21.97;16.52;;;;;;;24.39;72.64;100828.02;1752189;82;20980;-76
2021/08/17 05:01:55;;;;;;;20.95;15.90;;;;;;;24.71;72.11;100827.47;1752615;82;20988;-76
2021/08/17 05:04:21;;;;;;;19.62;16.23;;;;;;;25.16;70.99;100829.23;1752348;82;21007;-76
2021/08/17 05:06:51;;;;;;;18.82;14.93;;;;;;;25.70;69.73;100825.53;1752278;82;20937;-75
2021/08/17 05:09:18;;;;;;;23.65;14.30;;;;;;;26.32;68.10;100832.27;1752106;82;20889;-76
2021/08/17 05:11:44;;;;;;;17.45;13.53;;;;;;;26.91;65.95;100826.36;1752292;82;20983;-76
2021/08/17 05:14:11;;;;;;;15.32;12.65;;;;;;;27.46;64.30;100817.46;1752241;82;20984;-76
2021/08/17 05:16:38;;;;;;;17.32;12.65;;;;;;;28.00;62.73;100815.88;1752258;82;20881;-76
2021/08/17 05:19:06;;;;;;;16.80;12.53;;;;;;;28.50;61.50;100823.69;1752274;82;21961;-76
2021/08/17 05:21:34;;;;;;;14.47;11.85;;;;;;;29.00;59.82;100828.72;1752178;82;20924;-76
2021/08/17 05:24:02;;;;;;;13.72;12.30;;;;;;;29.46;58.39;100837.28;1752227;82;20941;-76
2021/08/17 05:26:29;;;;;;;15.00;13.40;;;;;;;29.93;56.53;100835.31;1752236;82;20905;-76
2021/08/17 05:28:58;;;;;;;14.73;12.68;;;;;;;30.37;54.75;100834.98;1752155;82;21146;-75
2021/08/17 05:31:26;;;;;;;16.25;13.22;;;;;;;30.77;54.06;100834.70;1752230;81;20889;-75
2021/08/17 05:33:53;;;;;;;17.60;13.72;;;;;;;31.16;52.70;100832.75;1752119;82;20972;-75
2021/08/17 05:36:21;;;;;;;14.73;13.30;;;;;;;31.53;51.25;100830.94;1752318;82;20924;-75
2021/08/17 05:38:49;;;;;;;18.77;14.00;;;;;;;31.88;50.52;100827.58;1752232;82;20912;-76
2021/08/17 05:41:16;;;;;;;18.50;14.70;;;;;;;32.25;49.41;100824.83;1752335;82;21434;-76
2021/08/17 05:43:44;;;;;;;19.82;14.58;;;;;;;32.62;48.21;100820.13;1752426;82;21347;-76
2021/08/17 05:46:12;;;;;;;21.42;14.95;;;;;;;32.96;47.60;100823.11;1752399;82;21004;-76
2021/08/17 05:48:40;;;;;;;19.95;14.83;;;;;;;33.27;46.97;100824.38;1752427;82;20900;-78
2021/08/17 05:51:07;;;;;;;16.00;14.33;;;;;;;33.58;45.94;100827.23;1752286;82;20940;-77
2021/08/17 05:53:34;;;;;;;16.00;13.78;;;;;;;33.85;45.07;100822.91;1752511;82;20916;-76
2021/08/17 05:56:01;;;;;;;13.65;12.30;;;;;;;34.11;44.05;100824.81;1752505;82;22179;-77
2021/08/17 05:58:29;;;;;;;23.52;12.60;;;;;;;34.38;43.38;100826.38;1752359;82;21374;-77
2021/08/17 06:00:56;;;;;;;14.20;12.63;;;;;;;34.65;43.05;100825.78;1752478;82;21335;-76
2021/08/17 06:03:23;;;;;;;16.07;13.72;;;;;;;34.87;42.45;100824.50;1752275;82;20979;-76
2021/08/17 06:05:51;;;;;;;16.60;14.20;;;;;;;35.07;41.56;100827.52;1752444;82;20885;-77
2021/08/17 06:08:18;;;;;;;14.38;13.03;;;;;;;35.32;40.96;100824.08;1752421;82;21172;-76
2021/08/17 06:10:45;;;;;;;18.23;14.25;;;;;;;35.55;40.67;100823.00;1752364;82;21494;-76
2021/08/17 06:13:12;;;;;;;16.65;15.00;;;;;;;35.74;40.15;100831.20;1752393;82;21027;-75
2021/08/17 06:15:40;;;;;;;18.87;14.00;;;;;;;35.96;39.37;100830.36;1752416;82;20909;-77
2021/08/17 06:18:08;;;;;;;21.33;13.80;;;;;;;36.17;39.05;100828.69;1752728;82;20892;-76
2021/08/17 06:20:37;;;;;;;16.85;15.08;;;;;;;36.36;38.65;100833.25;1752416;82;20897;-78
2021/08/17 06:23:04;;;;;;;18.87;13.93;;;;;;;36.55;38.02;100833.13;1752389;82;21584;-76
2021/08/17 06:25:31;;;;;;;17.45;14.68;;;;;;;36.74;37.41;100829.50;1752359;82;20892;-78
2021/08/17 06:27:58;;;;;;;17.45;15.20;;;;;;;36.95;36.81;100823.63;1752281;82;21422;-77
2021/08/17 06:30:25;;;;;;;18.90;16.90;;;;;;;37.17;36.25;100820.78;1752519;82;20901;-78
2021/08/17 06:32:53;;;;;;;18.35;15.30;;;;;;;37.36;35.60;100814.33;1752937;82;21508;-75
2021/08/17 06:35:20;;;;;;;26.33;17.73;;;;;;;37.55;35.59;100817.44;1752267;82;21353;-79
2021/08/17 06:37:46;;;;;;;19.80;15.88;;;;;;;37.73;34.98;100815.61;1752758;82;21497;-78
2021/08/17 06:40:14;;;;;;;22.17;16.82;;;;;;;37.93;34.37;100814.00;1752480;82;20979;-78
2021/08/17 06:42:40;;;;;;;24.02;17.77;;;;;;;38.09;33.63;100818.46;1752662;82;20916;-78
2021/08/17 06:45:08;;;;;;;18.67;16.32;;;;;;;38.30;33.42;100818.48;1752374;82;21137;-77
2021/08/17 06:47:49;;;;;;;18.90;15.95;;;;;;;38.49;33.11;100811.40;1752211;82;21462;-78
2021/08/17 06:50:17;;;;;;;22.73;15.90;;;;;;;38.69;32.66;100819.34;1752518;81;20888;-79
2021/08/17 06:52:44;;;;;;;19.75;15.53;;;;;;;38.88;32.51;100821.77;1752775;82;20960;-77
2021/08/17 06:55:11;;;;;;;20.95;16.15;;;;;;;39.00;31.96;100824.27;1751164;82;21011;-79
2021/08/17 06:57:41;;;;;;;19.27;14.80;;;;;;;39.12;31.72;100822.03;1780886;80;21128;-79
2021/08/17 07:00:10;;;;;;;20.70;15.58;;;;;;;39.23;31.60;100828.31;1743828;81;20908;-79
2021/08/17 07:02:37;;;;;;;20.37;15.60;;;;;;;39.31;31.39;100822.25;1743513;82;20924;-81
2021/08/17 07:05:05;;;;;;;17.07;14.00;;;;;;;39.40;31.15;100825.28;1717810;82;20944;-79
2021/08/17 07:07:34;;;;;;;18.42;14.00;;;;;;;39.49;31.32;100829.61;1780949;80;21433;-79
2021/08/17 07:10:01;;;;;;;16.02;12.85;;;;;;;39.57;30.47;100830.41;1744118;82;21729;-79
2021/08/17 07:12:30;;;;;;;16.65;11.10;;;;;;;39.51;30.63;100832.37;1743920;81;20932;-81
2021/08/17 07:14:58;;;;;;;15.10;11.40;;;;;;;39.52;29.02;100833.18;1717807;82;21343;-77
2021/08/17 07:17:25;;;;;;;12.63;11.33;;;;;;;39.63;29.09;100835.34;1780978;80;20906;-80
2021/08/17 07:19:52;;;;;;;22.00;14.07;;;;;;;39.77;29.29;100833.60;1744312;82;21019;-79
2021/08/17 07:22:19;;;;;;;20.37;16.05;;;;;;;39.87;29.27;100834.97;1744023;82;21100;-81
2021/08/17 07:24:46;;;;;;;19.82;15.75;;;;;;;39.96;29.74;100836.00;1717196;82;20909;-80
2021/08/17 07:27:13;;;;;;;19.60;14.75;;;;;;;40.03;30.37;100834.88;1781309;79;20916;-80
2021/08/17 07:29:40;;;;;;;20.35;14.13;;;;;;;40.06;29.58;100843.34;1781366;80;20911;-79
2021/08/17 07:32:07;;;;;;;18.35;14.00;;;;;;;40.01;29.79;100828.28;1745366;80;20939;-80
2021/08/17 07:34:34;;;;;;;20.02;14.13;;;;;;;40.00;29.54;100829.40;1720821;80;21112;-80
2021/08/17 07:37:01;;;;;;;20.02;13.32;;;;;;;40.02;29.35;100829.91;1783422;80;20852;-84
2021/08/17 07:39:28;;;;;;;18.52;14.18;;;;;;;40.11;29.06;100830.13;1781292;80;20848;-80
2021/08/17 07:41:56;;;;;;;17.98;14.75;;;;;;;40.22;29.22;100829.50;1780811;79;21482;-81
2021/08/17 07:44:23;;;;;;;20.65;16.10;;;;;;;40.30;29.38;100822.88;1780942;80;20903;-80
2021/08/17 07:46:49;;;;;;;20.20;15.00;;;;;;;40.44;29.31;100823.59;1780863;79;21121;-83
2021/08/17 07:49:16;;;;;;;20.50;17.45;;;;;;;40.55;28.54;100824.59;1781080;80;20920;-85
2021/08/17 07:51:44;;;;;;;19.57;15.50;;;;;;;40.60;28.79;100827.31;1744549;81;21003;-86
2021/08/17 07:54:11;;;;;;;17.95;13.25;;;;;;;40.70;28.65;100825.05;1744245;81;20948;-83
2021/08/17 07:56:38;;;;;;;17.77;13.32;;;;;;;40.67;27.28;100820.66;1714069;83;20933;-83
2021/08/17 07:59:05;;;;;;;17.73;11.55;;;;;;;40.61;26.97;100821.25;1710705;83;21968;-83
2021/08/17 08:01:33;;;;;;;11.57;9.80;;;;;;;40.49;26.37;100821.64;1710923;84;20894;-82
2021/08/17 08:04:00;;;;;;;11.10;8.88;;;;;;;40.28;26.69;100815.47;1711548;84;21351;-82
2021/08/17 08:06:27;;;;;;;12.65;9.50;;;;;;;40.00;26.54;100817.03;1710596;84;21011;-79
2021/08/17 08:08:54;;;;;;;13.50;10.28;;;;;;;39.82;27.21;100808.84;1711072;84;21486;-80
2021/08/17 08:11:21;;;;;;;12.05;9.95;;;;;;;39.88;27.89;100813.24;1722984;82;21125;-81
2021/08/17 08:13:57;;;;;;;11.20;8.98;;;;;;;39.97;27.85;100812.09;1723723;82;20901;-82
2021/08/17 08:16:35;;;;;;;;;;;;;;;;;;;;;
2021/08/17 08:18:54;;;;;;;12.00;9.40;;;;;;;40.04;28.08;100811.77;1714814;82;20968;-81
2021/08/17 08:21:21;;;;;;;11.55;9.05;;;;;;;40.07;28.46;100805.73;1742280;82;21319;-81
2021/08/17 08:23:47;;;;;;;11.30;8.93;;;;;;;40.18;28.09;100807.30;1742330;82;21351;-81
2021/08/17 08:26:14;;;;;;;7.85;7.05;;;;;;;40.29;28.06;100803.92;1741970;82;20957;-83
2021/08/17 08:28:46;;;;;;;9.15;7.33;;;;;;;40.37;27.24;100806.87;1742586;82;20866;-82
2021/08/17 08:31:15;;;;;;;9.80;7.20;;;;;;;40.43;26.73;100798.05;1742734;82;20980;-81
2021/08/17 08:33:44;;;;;;;9.50;7.55;;;;;;;40.36;26.93;100797.00;1742524;82;21019;-84
2021/08/17 08:36:11;;;;;;;8.63;7.00;;;;;;;40.34;27.74;100795.66;1742022;82;21607;-80
2021/08/17 08:38:38;;;;;;;12.50;7.37;;;;;;;40.33;27.57;100797.59;1742090;82;20937;-80
2021/08/17 08:41:04;;;;;;;6.35;5.72;;;;;;;40.30;27.40;100793.20;1742126;82;20925;-77
2021/08/17 08:43:31;;;;;;;6.90;5.62;;;;;;;40.30;26.77;100791.27;1742158;82;21611;-84
2021/08/17 08:46:00;;;;;;;7.33;6.25;;;;;;;40.27;26.76;100797.92;1741852;82;20933;-80
2021/08/17 08:48:29;;;;;;;7.22;5.47;;;;;;;40.25;26.56;100792.66;1741796;82;21420;-82
2021/08/17 08:50:55;;;;;;;12.75;5.47;;;;;;;40.25;27.09;100787.73;1741840;82;20988;-82
2021/08/17 08:53:22;;;;;;;5.47;4.97;;;;;;;40.29;27.00;100784.68;1742209;81;21008;-81
2021/08/17 08:55:49;;;;;;;7.03;5.17;;;;;;;40.39;26.47;100780.48;1742779;82;20905;-80
2021/08/17 08:58:19;;;;;;;7.10;4.87;;;;;;;40.48;24.88;100785.62;1752921;82;21572;-81
2021/08/17 09:00:46;;;;;;;6.30;5.70;;;;;;;40.29;25.74;100785.52;1752536;81;21228;-79
2021/08/17 09:03:13;;;;;;;7.30;5.03;;;;;;;40.25;25.63;100780.30;1753220;82;20940;-79
2021/08/17 09:05:51;;;;;;;10.60;5.45;;;;;;;40.23;26.00;100778.39;1752574;82;20976;-79
2021/08/17 09:08:23;;;;;;;8.80;4.80;;;;;;;40.23;26.32;100778.39;1752049;82;20865;-77
2021/08/17 09:10:52;;;;;;;10.30;5.50;;;;;;;40.29;25.46;100775.06;1752209;82;20829;-80
2021/08/17 09:13:23;;;;;;;9.50;5.17;;;;;;;40.29;25.88;100778.66;1752664;82;21913;-80
2021/08/17 09:15:50;;;;;;;;;;;;;;;40.30;25.03;100775.34;1755257;82;20928;-80
2021/08/17 09:18:18;;;;;;;5.92;4.25;;;;;;;40.33;25.09;100769.26;1752334;82;20443;-79
2021/08/17 09:20:47;;;;;;;5.42;4.72;;;;;;;40.38;24.64;100764.55;1752722;82;20932;-80
2021/08/17 09:23:28;;;;;;;5.42;4.58;;;;;;;40.36;25.12;100761.83;1752632;82;20928;-83
2021/08/17 09:25:58;;;;;;;6.95;4.85;;;;;;;40.35;25.27;100758.23;1752608;82;21151;-79
2021/08/17 09:28:36;;;;;;;5.70;4.45;;;;;;;40.47;25.34;100766.13;1752562;82;20900;-78
2021/08/17 09:31:24;;;;;;;8.90;4.50;;;;;;;40.52;24.81;100762.50;1751537;82;20944;-78
2021/08/17 09:33:51;;;;;;;5.35;4.85;;;;;;;40.48;25.30;100769.13;1730888;82;21395;-79
2021/08/17 09:36:18;;;;;;;5.70;5.20;;;;;;;40.53;25.32;100769.63;1752644;82;20877;-79
2021/08/17 09:38:47;;;;;;;6.08;4.83;;;;;;;40.60;25.76;100767.38;1703568;82;21055;-77
2021/08/17 09:41:24;;;;;;;5.45;4.87;;;;;;;40.69;24.70;100771.66;1752710;82;20928;-77
2021/08/17 09:44:06;;;;;;;6.58;5.03;;;;;;;40.74;24.95;100768.91;1752276;82;21477;-78
2021/08/17 09:46:39;;;;;;;9.13;4.90;;;;;;;40.69;25.16;100757.91;1752492;82;20988;-78
2021/08/17 09:49:26;;;;;;;8.33;5.37;;;;;;;40.55;25.28;100763.28;1752463;82;20952;-77
2021/08/17 09:51:54;;;;;;;7.37;4.85;;;;;;;40.47;25.85;100759.25;1752506;82;21137;-77
2021/08/17 09:54:23;;;;;;;5.83;4.87;;;;;;;40.49;25.25;100754.28;1751271;82;20931;-75
2021/08/17 09:57:04;;;;;;;6.10;4.72;;;;;;;40.57;25.11;100752.82;1752679;82;20865;-73
2021/08/17 09:59:33;;;;;;;9.13;4.78;;;;;;;40.70;25.26;100752.16;1752476;82;20889;-74
2021/08/17 10:02:03;;;;;;;7.08;4.42;;;;;;;40.86;25.05;100757.50;1752672;82;20924;-73
2021/08/17 10:04:30;;;;;;;11.43;4.65;;;;;;;40.96;25.01;100754.65;1752317;82;21194;-72
2021/08/17 10:07:00;;;;;;;8.50;4.95;;;;;;;41.02;24.41;100754.83;1752243;82;20845;-73
2021/08/17 10:09:28;;;;;;;5.65;4.00;;;;;;;41.11;23.80;100752.25;1752305;82;20941;-75
2021/08/17 10:11:55;;;;;;;4.55;4.15;;;;;;;41.21;23.86;100742.53;1752264;82;21457;-74
2021/08/17 10:14:24;;;;;;;5.40;4.90;;;;;;;41.36;24.27;100739.58;1752329;82;20971;-75
2021/08/17 10:16:51;;;;;;;4.92;4.62;;;;;;;41.47;23.83;100749.89;1752411;82;21533;-74
2021/08/17 10:19:23;;;;;;;5.87;4.60;;;;;;;41.48;23.64;100741.07;1752313;82;20869;-74
2021/08/17 10:21:53;;;;;;;5.72;4.15;;;;;;;41.48;23.91;100742.45;1752257;82;21377;-74
2021/08/17 10:24:36;;;;;;;5.78;4.55;;;;;;;41.59;23.69;100746.16;1752502;82;20876;-74
2021/08/17 10:27:18;;;;;;;9.03;5.40;;;;;;;41.68;23.58;100740.80;1752305;82;20896;-74
2021/08/17 10:30:03;;;;;;;6.27;5.07;;;;;;;41.79;23.51;100740.09;1752652;82;21644;-74
2021/08/17 10:32:54;;;;;;;4.35;3.95;;;;;;;41.90;23.23;100745.70;1741784;82;20935;-74
2021/08/17 10:35:35;;;;;;;5.60;5.08;;;;;;;42.03;23.25;100741.39;1752755;82;20935;-75
2021/08/17 10:38:14;;;;;;;5.53;4.80;;;;;;;42.14;22.94;100742.86;1752638;82;21007;-75
2021/08/17 10:40:55;;;;;;;6.37;4.35;;;;;;;42.13;22.85;100739.83;1752645;82;20901;-75
2021/08/17 10:43:31;;;;;;;4.70;4.30;;;;;;;41.91;23.40;100734.95;1752209;82;22005;-75
2021/08/17 10:46:05;;;;;;;7.30;4.95;;;;;;;41.80;23.29;100739.80;1752576;82;20882;-73
2021/08/17 10:48:50;;;;;;;7.22;4.87;;;;;;;41.62;24.01;100740.61;1752553;82;21003;-73
2021/08/17 10:51:25;;;;;;;10.95;4.75;;;;;;;41.48;24.09;100737.75;1752750;82;20940;-75
2021/08/17 10:53:55;;;;;;;8.60;4.80;;;;;;;41.48;24.02;100728.12;1752409;82;21416;-75
2021/08/17 10:56:28;;;;;;;5.37;4.25;;;;;;;41.50;24.14;100730.58;1741671;82;21104;-74
2021/08/17 10:58:58;;;;;;;4.90;4.37;;;;;;;41.50;23.56;100726.45;1725255;83;20929;-74
2021/08/17 11:01:46;;;;;;;6.58;4.83;;;;;;;41.50;23.62;100734.15;1725689;83;20865;-75
2021/08/17 11:04:20;;;;;;;4.65;3.50;;;;;;;41.54;23.68;100729.69;1725617;83;21019;-74
2021/08/17 11:06:55;;;;;;;6.62;4.55;;;;;;;41.58;23.13;100733.52;1781195;80;20904;-76
2021/08/17 11:09:30;;;;;;;9.38;5.12;;;;;;;41.53;23.04;100724.47;1782326;80;21239;-75
2021/08/17 11:12:07;;;;;;;5.25;4.80;;;;;;;41.32;23.55;100734.40;1781145;79;20903;-75
2021/08/17 11:14:36;;;;;;;6.28;5.28;;;;;;;41.01;24.20;100731.19;1780976;79;20935;-75
2021/08/17 11:17:18;;;;;;;9.08;4.67;;;;;;;41.02;24.92;100727.31;1780962;80;20943;-75
2021/08/17 11:19:48;;;;;;;9.40;4.60;;;;;;;41.10;23.71;100713.47;1780942;79;20971;-74
2021/08/17 11:22:19;;;;;;;6.47;4.90;;;;;;;41.10;23.75;100720.36;1780940;79;20939;-75
2021/08/17 11:24:55;;;;;;;5.08;4.28;;;;;;;41.12;24.08;100722.25;1780798;80;21374;-74